Time;durP1;ratioP1;P1;durP2;ratioP2;P2;SDS_P1;SDS_P2;PMS_P1;PMS_P2;Temp;Humidity;BMP_temperature;BMP_pressure;BME280_temperature;BME280_humidity;BME280_pressure;Samples;Min_cycle;Max_cycle;Signal;HPM_P1;HPM_P2
2021/06/20 00:00:25;;;;;;;9.60;1.45;;;;;;;22.55;62.72;99682.62;1763386;81;21070;-73
2021/06/20 00:02:51;;;;;;;6.70;1.20;;;;;;;22.53;62.76;99685.02;1763129;81;21538;-68
2021/06/20 00:05:21;;;;;;;3.55;1.57;;;;;;;22.50;62.80;99684.41;1763134;81;20932;-68
2021/06/20 00:07:49;;;;;;;8.45;1.72;;;;;;;22.49;62.86;99679.98;1763080;81;21050;-69
2021/06/20 00:10:21;;;;;;;10.88;2.10;;;;;;;22.45;62.99;99677.16;1757370;81;20987;-70
2021/06/20 00:12:48;;;;;;;12.25;1.90;;;;;;;22.43;63.11;99683.80;1757397;81;21066;-69
2021/06/20 00:15:19;;;;;;;7.90;1.80;;;;;;;22.43;63.19;99681.58;1757362;81;20931;-70
2021/06/20 00:17:47;;;;;;;5.15;1.52;;;;;;;22.41;63.18;99680.58;1747148;81;20916;-71
2021/06/20 00:20:16;;;;;;;8.35;2.00;;;;;;;22.35;63.30;99680.75;1729319;81;21032;-69
2021/06/20 00:22:45;;;;;;;5.62;2.00;;;;;;;22.30;63.51;99686.75;1757599;81;21023;-71
2021/06/20 00:25:12;;;;;;;9.40;1.30;;;;;;;22.24;63.62;99682.95;1757423;81;22041;-71
2021/06/20 00:27:40;;;;;;;4.72;2.00;;;;;;;22.22;63.81;99678.92;1757183;81;21500;-75
2021/06/20 00:30:09;;;;;;;9.25;1.70;;;;;;;22.23;63.88;99679.12;1776745;80;20907;-74
2021/06/20 00:32:36;;;;;;;4.85;2.22;;;;;;;22.23;63.92;99676.31;1762895;81;21431;-67
2021/06/20 00:35:06;;;;;;;6.05;1.70;;;;;;;22.21;63.99;99679.52;1763216;80;21547;-69
2021/06/20 00:37:34;;;;;;;5.97;1.87;;;;;;;22.18;64.10;99686.55;1763065;81;21531;-72
2021/06/20 00:40:00;;;;;;;1.52;1.07;;;;;;;22.16;64.25;99684.73;1763084;81;21388;-72
2021/06/20 00:42:27;;;;;;;8.25;1.60;;;;;;;22.13;64.24;99687.70;1762904;81;20923;-70
2021/06/20 00:44:53;;;;;;;4.08;1.40;;;;;;;22.12;64.27;99690.33;1763114;81;21522;-69
2021/06/20 00:47:20;;;;;;;8.20;2.65;;;;;;;22.11;64.35;99695.13;1763237;81;20911;-66
2021/06/20 00:49:47;;;;;;;7.20;1.85;;;;;;;22.10;64.35;99687.91;1763082;81;21886;-73
2021/06/20 00:52:14;;;;;;;8.88;1.50;;;;;;;22.09;64.42;99691.90;1762749;81;20978;-74
2021/06/20 00:54:47;;;;;;;6.72;1.47;;;;;;;22.07;64.56;99696.31;1763034;81;21308;-71
2021/06/20 00:57:13;;;;;;;5.95;2.20;;;;;;;22.06;64.74;99696.13;1763022;81;21025;-70
2021/06/20 00:59:40;;;;;;;7.67;1.90;;;;;;;22.05;64.67;99695.90;1786481;80;20938;-72
2021/06/20 01:02:07;;;;;;;7.17;1.85;;;;;;;22.04;64.75;99701.31;1757651;81;21081;-67
2021/06/20 01:04:33;;;;;;;5.10;1.50;;;;;;;22.04;64.90;99709.11;1757434;81;20987;-73
2021/06/20 01:06:59;;;;;;;4.50;1.30;;;;;;;22.04;64.95;99709.73;1757497;81;21015;-70
2021/06/20 01:09:26;;;;;;;3.30;1.80;;;;;;;21.99;65.08;99704.69;1756964;81;21089;-69
2021/06/20 01:11:53;;;;;;;10.05;1.47;;;;;;;22.00;65.05;99705.50;1747653;81;21057;-71
2021/06/20 01:14:20;;;;;;;4.08;1.37;;;;;;;22.01;65.07;99701.49;1743702;82;21404;-69
2021/06/20 01:16:52;;;;;;;3.62;1.42;;;;;;;22.01;65.04;99702.89;1741281;82;20896;-70
2021/06/20 01:19:19;;;;;;;5.33;1.57;;;;;;;22.03;65.02;99698.28;1758006;81;20940;-69
2021/06/20 01:21:47;;;;;;;6.87;1.90;;;;;;;22.04;65.00;99709.11;1757831;80;20944;-71
2021/06/20 01:24:13;;;;;;;4.37;1.67;;;;;;;22.05;65.07;99714.94;1746834;82;21005;-69
2021/06/20 01:26:40;;;;;;;12.70;1.80;;;;;;;22.04;65.07;99722.35;1746900;82;21132;-70
2021/06/20 01:29:08;;;;;;;3.42;1.50;;;;;;;22.01;65.07;99721.13;1746910;82;20924;-72
2021/06/20 01:31:37;;;;;;;10.30;1.72;;;;;;;21.98;65.09;99719.11;1746914;82;21499;-68
2021/06/20 01:34:06;;;;;;;6.95;1.20;;;;;;;21.97;65.25;99717.52;1746858;80;21570;-65
2021/06/20 01:36:33;;;;;;;6.40;1.17;;;;;;;21.97;65.31;99726.71;1747335;82;20936;-70
2021/06/20 01:39:01;;;;;;;8.73;1.85;;;;;;;21.97;65.33;99731.54;1746570;82;21163;-71
2021/06/20 01:41:27;;;;;;;13.05;1.70;;;;;;;21.95;65.39;99729.13;1747233;81;20994;-69
2021/06/20 01:43:55;;;;;;;5.30;1.72;;;;;;;21.96;65.40;99722.31;1746851;82;21055;-69
2021/06/20 01:46:22;;;;;;;6.03;1.57;;;;;;;21.97;65.41;99725.93;1743902;82;21051;-72
2021/06/20 01:48:49;;;;;;;6.20;1.47;;;;;;;21.96;65.38;99725.12;1741366;82;21432;-68
2021/06/20 01:51:15;;;;;;;5.37;1.42;;;;;;;21.98;65.33;99721.91;1743950;82;21130;-71
2021/06/20 01:53:42;;;;;;;4.97;1.25;;;;;;;21.99;65.18;99720.73;1741204;82;21018;-70
2021/06/20 01:56:08;;;;;;;9.85;1.98;;;;;;;21.96;65.25;99720.91;1741403;82;21011;-69
2021/06/20 01:58:35;;;;;;;5.28;1.35;;;;;;;21.97;65.32;99723.12;1757966;81;21432;-71
2021/06/20 02:01:02;;;;;;;8.25;1.90;;;;;;;21.99;65.33;99722.14;1746887;82;21022;-70
2021/06/20 02:03:30;;;;;;;6.30;1.60;;;;;;;22.01;65.30;99719.72;1746974;82;21131;-67
2021/06/20 02:05:58;;;;;;;6.10;1.47;;;;;;;22.05;65.17;99712.73;1746937;82;20884;-71
2021/06/20 02:08:27;;;;;;;3.50;1.50;;;;;;;22.07;64.94;99711.15;1746925;82;21011;-72
2021/06/20 02:10:55;;;;;;;8.38;2.05;;;;;;;22.08;64.91;99712.75;1747634;81;20939;-71
2021/06/20 02:13:24;;;;;;;3.87;1.98;;;;;;;22.08;64.97;99704.33;1762903;81;21030;-69
2021/06/20 02:15:52;;;;;;;5.35;1.77;;;;;;;22.08;65.01;99700.71;1762989;81;21010;-71
2021/06/20 02:18:21;;;;;;;9.03;2.25;;;;;;;22.07;64.96;99699.12;1762916;81;20983;-69
2021/06/20 02:20:48;;;;;;;9.48;2.65;;;;;;;22.06;64.91;99694.72;1762947;80;21007;-69
2021/06/20 02:23:14;;;;;;;5.80;1.45;;;;;;;22.04;64.93;99692.28;1761113;81;21467;-71
2021/06/20 02:25:43;;;;;;;5.28;1.60;;;;;;;22.05;65.00;99700.11;1762962;81;21086;-70
2021/06/20 02:28:10;;;;;;;7.70;1.75;;;;;;;22.04;65.07;99703.50;1763065;81;21167;-70
2021/06/20 02:30:36;;;;;;;6.17;1.52;;;;;;;22.03;65.06;99703.31;1763244;81;20872;-71
2021/06/20 02:33:04;;;;;;;5.85;1.40;;;;;;;22.02;65.04;99698.91;1762933;81;21050;-74
2021/06/20 02:35:31;;;;;;;13.08;1.72;;;;;;;22.01;65.07;99694.48;1762762;80;20978;-69
2021/06/20 02:37:58;;;;;;;3.77;1.60;;;;;;;22.01;65.00;99695.87;1763132;81;20943;-71
2021/06/20 02:40:24;;;;;;;5.40;1.37;;;;;;;22.01;65.05;99696.69;1763342;81;21082;-71
2021/06/20 02:42:50;;;;;;;8.23;2.00;;;;;;;21.99;64.92;99701.89;1762894;81;21496;-69
2021/06/20 02:45:21;;;;;;;6.85;1.75;;;;;;;22.00;64.84;99698.49;1763025;81;20939;-72
2021/06/20 02:47:47;;;;;;;5.03;1.60;;;;;;;22.00;64.73;99697.09;1762983;81;21424;-71
2021/06/20 02:50:15;;;;;;;6.20;2.08;;;;;;;21.98;64.67;99698.08;1763250;81;20978;-71
2021/06/20 02:52:43;;;;;;;7.92;1.50;;;;;;;21.98;64.74;99698.08;1762867;81;21150;-71
2021/06/20 02:55:11;;;;;;;9.38;2.25;;;;;;;21.98;64.67;99695.27;1733041;81;20975;-70
2021/06/20 02:57:38;;;;;;;7.35;2.05;;;;;;;21.98;64.70;99697.48;1763035;81;20839;-70
2021/06/20 03:00:05;;;;;;;5.92;1.30;;;;;;;21.98;64.66;99690.48;1762993;81;21004;-69
2021/06/20 03:02:34;;;;;;;5.50;1.60;;;;;;;21.99;64.62;99682.25;1763320;81;20974;-72
2021/06/20 03:05:01;;;;;;;5.58;1.70;;;;;;;22.03;64.53;99678.06;1763396;81;21750;-71
2021/06/20 03:07:27;;;;;;;2.37;1.27;;;;;;;22.04;64.48;99685.27;1762871;81;20845;-72
2021/06/20 03:09:55;;;;;;;2.42;1.60;;;;;;;22.06;64.57;99681.47;1763012;81;21070;-71
2021/06/20 03:12:22;;;;;;;7.97;1.80;;;;;;;22.09;64.63;99677.88;1740245;81;20956;-71
2021/06/20 03:14:49;;;;;;;4.40;1.62;;;;;;;22.12;64.39;99684.12;1734087;82;20968;-71
2021/06/20 03:17:17;;;;;;;5.03;1.47;;;;;;;22.15;64.31;99694.33;1735969;82;21997;-70
2021/06/20 03:19:46;;;;;;;6.90;1.50;;;;;;;22.16;64.30;99705.77;1736433;81;20992;-69
2021/06/20 03:22:14;;;;;;;9.45;1.98;;;;;;;22.20;64.04;99713.58;1736337;81;21544;-69
2021/06/20 03:24:48;;;;;;;8.55;1.70;;;;;;;22.20;63.81;99717.78;1736310;82;20984;-70
2021/06/20 03:27:14;;;;;;;4.05;1.75;;;;;;;22.20;63.58;99720.59;1736324;82;20897;-71
2021/06/20 03:29:41;;;;;;;6.45;1.92;;;;;;;22.18;63.44;99713.20;1736399;82;21492;-71
2021/06/20 03:32:07;;;;;;;7.42;1.52;;;;;;;22.17;63.26;99724.20;1736278;82;21408;-73
2021/06/20 03:34:34;;;;;;;5.10;1.92;;;;;;;22.17;63.29;99725.01;1736479;82;21047;-70
2021/06/20 03:37:02;;;;;;;3.27;1.77;;;;;;;22.17;63.22;99729.80;1735302;82;21031;-72
2021/06/20 03:39:30;;;;;;;5.58;1.82;;;;;;;22.15;63.26;99730.80;1736536;82;20909;-69
2021/06/20 03:41:57;;;;;;;4.45;1.80;;;;;;;22.17;63.11;99721.39;1736669;82;21096;-70
2021/06/20 03:44:23;;;;;;;6.10;1.70;;;;;;;22.17;63.18;99727.00;1736517;82;21004;-70
2021/06/20 03:46:51;;;;;;;3.77;1.50;;;;;;;22.19;63.05;99728.23;1736630;82;21440;-73
2021/06/20 03:49:18;;;;;;;9.95;1.98;;;;;;;22.17;63.07;99717.99;1736153;82;20944;-71
2021/06/20 03:51:45;;;;;;;6.05;1.45;;;;;;;22.18;62.83;99711.17;1736587;82;20987;-71
2021/06/20 03:54:12;;;;;;;4.20;1.55;;;;;;;22.20;62.63;99706.56;1736475;82;21053;-71
2021/06/20 03:56:38;;;;;;;2.98;1.20;;;;;;;22.20;62.73;99703.17;1736507;82;20881;-70
2021/06/20 03:59:08;;;;;;;6.37;1.52;;;;;;;22.20;62.64;99706.56;1736444;82;21015;-70
2021/06/20 04:01:35;;;;;;;5.70;1.50;;;;;;;22.20;62.63;99698.15;1736529;82;21472;-69
2021/06/20 04:04:03;;;;;;;1.60;1.22;;;;;;;22.18;62.54;99701.35;1735873;82;21047;-71
2021/06/20 04:06:30;;;;;;;4.00;1.30;;;;;;;22.21;62.76;99703.98;1735444;82;21516;-74
2021/06/20 04:08:57;;;;;;;4.40;1.70;;;;;;;22.22;62.86;99695.76;1735331;82;20948;-74
2021/06/20 04:11:23;;;;;;;6.00;1.65;;;;;;;22.24;62.84;99677.34;1736940;82;21555;-69
2021/06/20 04:13:50;;;;;;;7.25;1.45;;;;;;;22.24;62.42;99659.11;1736787;82;20965;-69
2021/06/20 04:16:18;;;;;;;14.03;1.82;;;;;;;22.19;62.20;99661.48;1736329;82;20920;-71
2021/06/20 04:18:48;;;;;;;7.12;1.50;;;;;;;22.17;62.59;99666.69;1736286;82;21743;-73
2021/06/20 04:21:16;;;;;;;3.08;1.40;;;;;;;22.14;62.56;99664.09;1735201;82;20877;-71
2021/06/20 04:23:45;;;;;;;13.18;1.42;;;;;;;22.15;62.59;99664.87;1736603;82;21011;-67
2021/06/20 04:26:12;;;;;;;5.95;1.60;;;;;;;22.16;62.30;99664.47;1736276;81;20995;-68
2021/06/20 04:28:38;;;;;;;4.20;1.42;;;;;;;22.18;62.11;99658.48;1736663;82;20979;-69
2021/06/20 04:31:06;;;;;;;4.62;1.20;;;;;;;22.22;62.02;99667.70;1735608;82;21675;-68
2021/06/20 04:33:36;;;;;;;9.88;1.22;;;;;;;22.25;61.89;99664.09;1736275;82;20940;-69
2021/06/20 04:36:04;;;;;;;7.05;1.27;;;;;;;22.31;61.70;99661.72;1735038;82;21106;-72
2021/06/20 04:38:30;;;;;;;4.22;1.20;;;;;;;22.38;61.70;99656.91;1735951;82;21032;-69
2021/06/20 04:41:09;;;;;;;4.50;1.32;;;;;;;22.43;61.43;99650.13;1736679;82;21075;-70
2021/06/20 04:46:22;;;;;;;3.02;1.15;;;;;;;22.51;61.23;99656.53;1736334;82;21011;-69
2021/06/20 04:48:53;;;;;;;4.22;1.55;;;;;;;22.58;61.39;99654.33;1736681;82;20932;-70
2021/06/20 04:51:20;;;;;;;5.97;1.45;;;;;;;22.63;61.08;99658.77;1736489;82;20912;-68
2021/06/20 04:53:48;;;;;;;10.40;1.80;;;;;;;22.66;60.80;99664.39;1736568;81;21418;-72
2021/06/20 04:56:14;;;;;;;4.42;1.30;;;;;;;22.71;60.55;99659.78;1737337;82;21118;-69
2021/06/20 04:58:42;;;;;;;5.55;1.65;;;;;;;22.74;60.36;99642.73;1736128;82;20933;-72
2021/06/20 05:01:09;;;;;;;2.62;1.22;;;;;;;22.75;60.14;99647.16;1736212;82;21011;-69
2021/06/20 05:03:36;;;;;;;5.92;1.45;;;;;;;22.78;59.86;99650.56;1736130;82;21019;-70
2021/06/20 05:06:03;;;;;;;6.87;1.77;;;;;;;22.81;60.00;99662.39;1735058;82;21047;-68
2021/06/20 05:08:30;;;;;;;3.77;1.35;;;;;;;22.84;60.04;99661.58;1736230;82;21036;-69
2021/06/20 05:10:59;;;;;;;5.17;1.57;;;;;;;22.89;59.99;99654.78;1706483;84;21079;-68
2021/06/20 05:13:25;;;;;;;8.48;1.50;;;;;;;22.90;59.38;99651.35;1715055;82;21015;-71
2021/06/20 05:15:53;;;;;;;8.03;1.50;;;;;;;22.90;59.31;99650.76;1735569;82;21035;-70
2021/06/20 05:18:21;;;;;;;8.23;1.77;;;;;;;22.90;59.20;99645.73;1736139;82;22094;-70
2021/06/20 05:20:48;;;;;;;4.92;1.52;;;;;;;22.85;58.67;99646.95;1735713;82;21409;-71
2021/06/20 05:23:14;;;;;;;8.68;1.60;;;;;;;22.85;59.04;99641.33;1735479;82;21000;-71
2021/06/20 05:25:42;;;;;;;14.35;2.10;;;;;;;22.92;59.13;99644.73;1734473;82;21019;-67
2021/06/20 05:28:08;;;;;;;2.98;1.50;;;;;;;22.95;58.73;99633.50;1736370;82;21413;-70
2021/06/20 05:30:35;;;;;;;6.20;2.62;;;;;;;23.04;58.87;99642.93;1735894;82;21575;-69
2021/06/20 05:33:01;;;;;;;5.20;1.37;;;;;;;23.17;58.83;99639.68;1736113;82;21093;-69
2021/06/20 05:35:28;;;;;;;4.28;1.70;;;;;;;23.32;58.54;99642.66;1736272;81;20957;-70
2021/06/20 05:37:58;;;;;;;5.55;2.08;;;;;;;23.47;58.15;99648.30;1734623;82;21083;-68
2021/06/20 05:40:27;;;;;;;4.53;2.15;;;;;;;23.57;57.90;99638.22;1713335;82;20944;-69
2021/06/20 05:42:53;;;;;;;7.08;1.57;;;;;;;23.70;57.67;99646.40;1735922;82;21576;-67
2021/06/20 05:45:21;;;;;;;5.67;1.98;;;;;;;23.79;57.02;99641.75;1730757;82;21103;-73
2021/06/20 05:47:49;;;;;;;8.73;1.82;;;;;;;23.85;56.90;99638.52;1729893;82;21464;-67
2021/06/20 05:50:16;;;;;;;6.75;2.10;;;;;;;23.90;56.64;99643.72;1733757;82;20996;-67
2021/06/20 05:52:45;;;;;;;7.10;2.37;;;;;;;23.91;56.06;99646.12;1735913;82;21496;-67
2021/06/20 05:55:11;;;;;;;9.83;2.20;;;;;;;23.89;56.06;99643.50;1719912;82;21012;-69
2021/06/20 05:57:37;;;;;;;6.10;1.65;;;;;;;23.86;56.26;99650.76;1723595;82;21495;-69
2021/06/20 06:00:07;;;;;;;14.25;2.30;;;;;;;23.83;56.16;99643.92;1729975;82;21499;-68
2021/06/20 06:02:35;;;;;;;3.58;1.10;;;;;;;23.80;56.03;99646.16;1732423;82;21064;-67
2021/06/20 06:05:02;;;;;;;6.22;1.42;;;;;;;23.77;55.66;99653.19;1738819;82;21535;-67
2021/06/20 06:07:29;;;;;;;6.95;1.57;;;;;;;23.75;56.24;99652.83;1737518;82;21599;-68
2021/06/20 06:09:55;;;;;;;9.60;1.60;;;;;;;23.79;56.25;99657.22;1736041;82;21139;-69
2021/06/20 06:12:23;;;;;;;7.25;1.40;;;;;;;23.87;56.39;99659.38;1735043;82;21053;-69
2021/06/20 06:14:53;;;;;;;3.22;1.42;;;;;;;23.97;55.93;99656.31;1728306;82;20941;-70
2021/06/20 06:17:22;;;;;;;4.80;2.27;;;;;;;24.03;56.19;99654.70;1732120;82;21016;-71
2021/06/20 06:19:50;;;;;;;10.13;2.37;;;;;;;24.06;55.90;99657.28;1732682;82;21035;-67
2021/06/20 06:22:20;;;;;;;8.43;1.57;;;;;;;24.11;55.86;99660.27;1731807;82;22002;-67
2021/06/20 06:24:47;;;;;;;5.50;1.70;;;;;;;24.20;56.14;99664.88;1731448;82;21416;-68
2021/06/20 06:27:14;;;;;;;13.60;2.35;;;;;;;24.30;56.43;99661.20;1757198;81;20972;-69
2021/06/20 06:29:41;;;;;;;3.27;1.57;;;;;;;24.38;55.68;99668.20;1757581;80;20999;-70
2021/06/20 06:32:08;;;;;;;5.85;1.57;;;;;;;24.38;55.42;99665.39;1758072;81;20939;-69
2021/06/20 06:34:35;;;;;;;4.78;1.67;;;;;;;24.34;54.89;99670.23;1746799;80;21026;-71
2021/06/20 06:37:01;;;;;;;4.15;1.37;;;;;;;24.28;54.93;99670.66;1746640;81;21039;-70
2021/06/20 06:39:29;;;;;;;8.85;1.42;;;;;;;24.26;55.33;99671.67;1743865;82;21448;-68
2021/06/20 06:41:55;;;;;;;2.95;1.42;;;;;;;24.23;55.97;99673.09;1745254;82;20940;-70
2021/06/20 06:44:22;;;;;;;4.62;1.77;;;;;;;24.21;56.26;99676.95;1743731;82;21094;-72
2021/06/20 06:47:13;;;;;;;8.90;1.80;;;;;;;24.19;56.65;99673.14;1655518;84;21259;-70
2021/06/20 06:49:43;;;;;;;5.92;1.72;;;;;;;24.18;56.86;99667.30;1647473;85;20969;-72
2021/06/20 06:52:10;;;;;;;6.75;1.65;;;;;;;24.27;57.46;99665.45;1670306;84;20986;-68
2021/06/20 06:54:36;;;;;;;4.80;1.70;;;;;;;24.38;57.63;99661.95;1670631;86;20990;-70
2021/06/20 06:57:03;;;;;;;5.22;1.37;;;;;;;24.53;57.22;99664.69;1663212;85;20942;-69
2021/06/20 06:59:30;;;;;;;22.95;2.00;;;;;;;24.62;55.27;99655.75;1667031;86;20992;-70
2021/06/20 07:01:57;;;;;;;3.90;1.75;;;;;;;24.69;54.67;99652.88;1659833;85;21557;-72
2021/06/20 07:04:24;;;;;;;5.15;1.50;;;;;;;24.76;54.82;99641.56;1663177;84;21472;-67
2021/06/20 07:06:52;;;;;;;6.95;1.32;;;;;;;24.86;55.28;99644.09;1647411;85;21050;-70
2021/06/20 07:09:19;;;;;;;5.78;1.12;;;;;;;24.92;54.25;99643.08;1678669;84;20985;-73
2021/06/20 07:11:48;;;;;;;5.80;1.42;;;;;;;24.97;54.11;99633.36;1639178;85;20970;-70
2021/06/20 07:14:16;;;;;;;9.28;1.02;;;;;;;24.99;53.52;99634.53;1669936;86;21404;-70
2021/06/20 07:16:44;;;;;;;17.12;1.40;;;;;;;25.00;53.06;99628.30;1668275;85;20911;-71
2021/06/20 07:19:14;;;;;;;3.30;1.02;;;;;;;25.00;52.81;99636.16;1675317;84;21046;-70
2021/06/20 07:21:42;;;;;;;9.18;1.40;;;;;;;25.03;52.79;99631.09;1675087;84;21026;-69
2021/06/20 07:24:11;;;;;;;11.03;1.62;;;;;;;25.14;52.01;99633.00;1624249;86;21017;-75
2021/06/20 07:26:43;;;;;;;8.33;1.40;;;;;;;25.22;51.89;99630.89;1639221;86;20961;-70
2021/06/20 07:29:11;;;;;;;8.55;1.50;;;;;;;25.34;52.66;99628.95;1598831;88;21072;-73
2021/06/20 07:31:39;;;;;;;7.53;1.65;;;;;;;25.48;52.29;99628.61;1664288;85;20909;-69
2021/06/20 07:34:07;;;;;;;7.08;1.40;;;;;;;25.60;52.30;99628.67;1649630;85;21028;-68
2021/06/20 07:36:33;;;;;;;7.05;2.27;;;;;;;25.64;51.04;99635.11;1628211;87;21742;-68
2021/06/20 07:38:59;;;;;;;13.32;1.55;;;;;;;25.64;50.89;99630.25;1624147;88;21039;-68
2021/06/20 07:41:27;;;;;;;8.25;1.22;;;;;;;25.63;50.98;99636.28;1628533;86;21069;-70
2021/06/20 07:43:55;;;;;;;20.88;1.90;;;;;;;25.56;50.36;99640.59;1628561;86;21532;-66
2021/06/20 07:46:22;;;;;;;7.00;1.55;;;;;;;25.44;50.06;99645.56;1644304;86;21129;-72
2021/06/20 07:48:48;;;;;;;9.38;1.40;;;;;;;25.32;50.09;99636.25;1657102;86;21527;-69
2021/06/20 07:51:20;;;;;;;6.15;1.32;;;;;;;25.15;49.94;99634.59;1652527;86;20983;-69
2021/06/20 07:53:49;;;;;;;2.77;1.12;;;;;;;25.00;50.58;99635.34;1656123;86;21541;-68
2021/06/20 07:56:24;;;;;;;3.08;1.37;;;;;;;24.85;51.25;99626.20;1655603;86;21053;-69
2021/06/20 07:58:51;;;;;;;4.45;1.80;;;;;;;24.73;51.34;99624.09;1656124;86;21054;-72
2021/06/20 08:01:17;;;;;;;4.70;1.20;;;;;;;24.65;51.63;99611.30;1655938;86;21680;-68
2021/06/20 08:03:44;;;;;;;5.00;1.60;;;;;;;24.59;52.18;99605.30;1655071;84;21550;-70
2021/06/20 08:06:10;;;;;;;2.85;1.22;;;;;;;24.58;52.52;99602.89;1632873;86;21086;-70
2021/06/20 08:08:38;;;;;;;5.78;1.82;;;;;;;24.59;52.94;99601.67;1629929;88;21027;-69
2021/06/20 08:11:05;;;;;;;9.25;1.65;;;;;;;24.63;53.33;99599.03;1630793;88;21002;-74
2021/06/20 08:13:34;;;;;;;7.65;1.77;;;;;;;24.74;53.93;99593.30;1632145;86;21816;-73
2021/06/20 08:16:03;;;;;;;7.67;1.30;;;;;;;24.96;54.25;99583.88;1656105;86;21536;-68
2021/06/20 08:18:30;;;;;;;2.52;1.22;;;;;;;25.20;54.17;99577.77;1656390;86;21095;-72
2021/06/20 08:20:56;;;;;;;3.95;1.20;;;;;;;25.44;52.70;99578.49;1653013;86;21783;-73
2021/06/20 08:23:23;;;;;;;11.00;1.67;;;;;;;25.61;51.64;99575.27;1656179;86;21023;-67
2021/06/20 08:25:49;;;;;;;21.17;2.35;;;;;;;25.76;51.29;99573.10;1655621;86;21123;-67
2021/06/20 08:28:17;;;;;;;4.97;1.40;;;;;;;25.91;50.55;99575.11;1654417;86;20968;-70
2021/06/20 08:30:46;;;;;;;9.18;1.52;;;;;;;26.00;50.86;99569.72;1687776;80;21485;-73
2021/06/20 08:33:15;;;;;;;8.95;1.55;;;;;;;26.15;51.12;99570.93;1704583;83;21011;-70
2021/06/20 08:35:46;;;;;;;8.28;1.75;;;;;;;26.32;51.14;99570.47;1709732;83;21527;-72
2021/06/20 08:38:13;;;;;;;9.10;1.57;;;;;;;26.50;50.83;99567.97;1714942;83;21167;-70
2021/06/20 08:40:41;;;;;;;5.67;1.30;;;;;;;26.64;49.58;99570.36;1710926;83;20976;-72
2021/06/20 08:43:10;;;;;;;14.93;2.02;;;;;;;26.71;49.71;99569.64;1691078;82;21028;-70
2021/06/20 08:45:38;;;;;;;9.98;2.08;;;;;;;26.79;48.80;99563.84;1705916;82;21461;-70
2021/06/20 08:48:11;;;;;;;2.47;1.17;;;;;;;26.85;48.30;99550.19;1703333;83;21408;-70
2021/06/20 08:50:37;;;;;;;5.80;1.00;;;;;;;26.97;49.03;99540.91;1707263;83;21080;-70
2021/06/20 08:53:04;;;;;;;5.95;1.42;;;;;;;27.07;48.29;99545.56;1703884;83;21068;-71
2021/06/20 08:55:34;;;;;;;8.60;2.08;;;;;;;27.12;47.30;99541.45;1704615;83;21088;-72
2021/06/20 08:58:23;;;;;;;7.90;1.57;;;;;;;27.18;47.13;99545.97;1700789;83;20909;-72
2021/06/20 09:00:50;;;;;;;6.17;1.40;;;;;;;27.28;47.00;99544.95;1709820;83;20993;-70
2021/06/20 09:03:16;;;;;;;6.22;1.07;;;;;;;27.42;47.03;99541.65;1689166;85;21773;-71
2021/06/20 09:05:58;;;;;;;2.98;0.98;;;;;;;27.52;46.03;99545.50;1693556;83;21456;-69
2021/06/20 09:08:27;;;;;;;4.92;1.37;;;;;;;27.58;45.38;99539.50;1699797;83;20973;-71
2021/06/20 09:10:55;;;;;;;6.03;1.07;;;;;;;27.63;45.86;99538.98;1700812;83;21001;-69
2021/06/20 09:13:23;;;;;;;15.03;1.95;;;;;;;27.72;45.24;99534.17;1687614;83;20987;-72
2021/06/20 09:16:04;;;;;;;4.53;1.70;;;;;;;27.76;44.50;99545.39;1688929;85;21838;-70
2021/06/20 09:18:32;;;;;;;5.70;1.47;;;;;;;27.75;44.18;99549.47;1700680;84;20993;-72
2021/06/20 09:20:59;;;;;;;5.87;1.20;;;;;;;27.71;44.52;99542.47;1688720;84;20969;-71
2021/06/20 09:23:25;;;;;;;5.05;1.07;;;;;;;27.75;44.99;99536.13;1679091;83;21426;-71
2021/06/20 09:25:59;;;;;;;7.42;1.47;;;;;;;27.85;45.84;99534.89;1688805;85;21544;-71
2021/06/20 09:28:36;;;;;;;9.90;1.35;;;;;;;27.93;44.88;99539.14;1688750;84;21128;-69
2021/06/20 09:31:07;;;;;;;8.30;1.07;;;;;;;27.99;44.78;99538.01;1682677;84;20937;-71
2021/06/20 09:33:36;;;;;;;10.68;1.42;;;;;;;28.05;44.11;99534.20;1669424;85;21013;-72
2021/06/20 09:36:03;;;;;;;27.37;2.92;;;;;;;28.07;43.59;99534.57;1680147;85;21080;-70
2021/06/20 09:38:38;;;;;;;6.03;1.55;;;;;;;28.11;44.00;99534.48;1681276;84;21039;-71
2021/06/20 09:41:20;;;;;;;11.88;1.40;;;;;;;28.13;43.70;99522.72;1680859;84;21005;-69
2021/06/20 09:43:55;;;;;;;9.75;1.30;;;;;;;28.14;43.52;99516.61;1681479;84;20917;-70
2021/06/20 09:46:23;;;;;;;17.12;1.65;;;;;;;28.23;43.55;99518.03;1679258;85;21557;-71
2021/06/20 09:48:54;;;;;;;14.53;1.40;;;;;;;28.28;42.80;99518.91;1682042;84;20937;-71
2021/06/20 09:51:29;;;;;;;11.48;1.98;;;;;;;28.31;43.03;99520.23;1681750;84;21591;-75
2021/06/20 09:53:58;;;;;;;7.97;1.30;;;;;;;28.38;42.91;99525.56;1680070;84;22107;-72
2021/06/20 09:56:30;;;;;;;6.17;2.15;;;;;;;28.43;43.43;99528.67;1681124;83;21088;-71
2021/06/20 09:59:01;;;;;;;7.67;1.72;;;;;;;28.51;44.08;99525.02;1675223;85;21028;-75
2021/06/20 10:01:33;;;;;;;30.50;2.22;;;;;;;28.61;43.32;99529.45;1674591;85;21398;-72
2021/06/20 10:04:01;;;;;;;7.35;1.37;;;;;;;28.74;42.41;99525.25;1675735;85;21028;-74
2021/06/20 10:06:27;;;;;;;3.30;1.50;;;;;;;28.77;41.43;99520.09;1675881;85;21127;-72
2021/06/20 10:08:54;;;;;;;10.78;2.52;;;;;;;28.79;41.07;99525.51;1676167;85;21004;-71
2021/06/20 10:11:24;;;;;;;7.15;1.57;;;;;;;28.88;41.84;99529.73;1676126;84;20996;-71
2021/06/20 10:13:50;;;;;;;9.78;2.45;;;;;;;28.95;41.13;99521.66;1676606;85;21064;-71
2021/06/20 10:16:37;;;;;;;2.52;0.93;;;;;;;29.00;40.65;99514.05;1676034;85;21626;-75
2021/06/20 10:19:18;;;;;;;8.23;1.75;;;;;;;29.07;41.04;99518.72;1675979;85;21100;-73
2021/06/20 10:21:47;;;;;;;5.35;1.20;;;;;;;29.16;40.56;99508.30;1676000;85;20953;-72
2021/06/20 10:24:19;;;;;;;6.40;1.32;;;;;;;29.23;39.72;99505.08;1674826;84;20969;-71
2021/06/20 10:26:59;;;;;;;3.50;1.75;;;;;;;29.25;39.95;99509.68;1681321;85;20957;-77
2021/06/20 10:29:31;;;;;;;5.15;1.32;;;;;;;29.27;40.65;99505.16;1681502;83;20933;-73
2021/06/20 10:31:59;;;;;;;5.65;1.75;;;;;;;29.37;40.32;99502.45;1681555;85;21126;-73
2021/06/20 10:35:02;;;;;;;5.33;1.82;;;;;;;29.43;39.83;99502.69;1681345;85;21423;-75
2021/06/20 10:37:35;;;;;;;12.15;2.55;;;;;;;29.45;40.12;99498.14;1681471;84;20997;-70
2021/06/20 10:40:04;;;;;;;11.30;1.85;;;;;;;29.55;40.10;99499.70;1681714;84;21001;-72
2021/06/20 10:42:38;;;;;;;3.85;1.15;;;;;;;29.63;39.78;99488.31;1681673;84;21033;-73
2021/06/20 10:45:07;;;;;;;12.88;1.62;;;;;;;29.70;39.04;99486.66;1681879;85;20959;-74
2021/06/20 10:47:43;;;;;;;11.48;2.60;;;;;;;29.78;39.60;99494.33;1681674;85;24364;-73
2021/06/20 10:50:15;;;;;;;17.12;1.70;;;;;;;29.91;39.57;99492.13;1681260;85;21131;-69
2021/06/20 10:52:58;;;;;;;6.42;0.75;;;;;;;29.92;38.39;99489.44;1679284;85;21015;-71
2021/06/20 10:55:56;;;;;;;10.30;1.77;;;;;;;29.92;38.44;99497.95;1684157;83;20976;-68
2021/06/20 10:58:41;;;;;;;7.33;1.85;;;;;;;29.95;37.81;99493.58;1678742;85;21543;-68
2021/06/20 11:01:12;;;;;;;25.68;1.92;;;;;;;29.96;37.77;99483.00;1680570;83;20994;-69
2021/06/20 11:03:55;;;;;;;10.30;5.28;;;;;;;29.93;36.69;99491.82;1681596;83;21001;-68
2021/06/20 11:06:23;;;;;;;10.90;3.20;;;;;;;29.90;37.48;99478.54;1682328;83;21389;-70
2021/06/20 11:09:08;;;;;;;10.32;2.20;;;;;;;29.91;37.28;99473.67;1686829;83;20953;-69
2021/06/20 11:11:46;;;;;;;17.60;7.92;;;;;;;29.92;36.84;99474.63;1712761;83;20921;-73
2021/06/20 11:14:14;;;;;;;11.93;1.70;;;;;;;29.94;36.33;99473.52;1709016;83;20868;-69
2021/06/20 11:16:45;;;;;;;6.33;2.90;;;;;;;29.98;36.34;99470.57;1708004;83;21017;-68
2021/06/20 11:19:22;;;;;;;21.45;11.35;;;;;;;30.04;36.76;99467.34;1708080;84;20996;-69
2021/06/20 11:22:06;;;;;;;6.55;2.75;;;;;;;30.13;37.37;99470.88;1708479;84;20909;-69
2021/06/20 11:24:47;;;;;;;18.57;1.70;;;;;;;30.21;36.50;99470.06;1708968;84;20948;-69
2021/06/20 11:27:19;;;;;;;12.23;7.40;;;;;;;30.29;35.56;99460.03;1709131;84;20976;-72
2021/06/20 11:29:55;;;;;;;64.05;40.60;;;;;;;30.35;36.44;99476.65;1708761;83;20936;-68
2021/06/20 11:32:34;;;;;;;128.55;90.60;;;;;;;30.39;35.97;99471.47;1708633;84;20989;-71
2021/06/20 11:35:20;;;;;;;143.47;96.42;;;;;;;30.43;36.24;99476.41;1708525;84;21055;-69
2021/06/20 11:37:55;;;;;;;29.30;17.30;;;;;;;30.50;36.29;99484.69;1687927;84;21472;-67
2021/06/20 11:40:23;;;;;;;30.02;18.07;;;;;;;30.55;35.71;99488.37;1687518;84;20939;-68
2021/06/20 11:42:54;;;;;;;34.60;18.45;;;;;;;30.57;36.45;99486.48;1687539;85;20952;-69